sensor_id;sensor_type;location;lat;lon;timestamp;temperature;humidity
14749;DHT22;7466;53.574;9.976;2023-06-14T00:00:52;15.20;99.90
14749;DHT22;7466;53.574;9.976;2023-06-14T00:03:19;15.20;99.90
14749;DHT22;7466;53.574;9.976;2023-06-14T00:05:47;15.10;99.90
14749;DHT22;7466;53.574;9.976;2023-06-14T00:08:16;15.10;99.90
14749;DHT22;7466;53.574;9.976;2023-06-14T00:10:44;15.20;99.90
14749;DHT22;7466;53.574;9.976;2023-06-14T00:13:12;15.20;99.90
14749;DHT22;7466;53.574;9.976;2023-06-14T00:15:39;15.20;99.90
14749;DHT22;7466;53.574;9.976;2023-06-14T00:18:06;15.10;99.90
14749;DHT22;7466;53.574;9.976;2023-06-14T00:20:33;15.10;99.90
14749;DHT22;7466;53.574;9.976;2023-06-14T00:23:00;15.20;99.90
14749;DHT22;7466;53.574;9.976;2023-06-14T00:25:28;15.20;99.90
14749;DHT22;7466;53.574;9.976;2023-06-14T00:27:55;15.10;99.90
14749;DHT22;7466;53.574;9.976;2023-06-14T00:30:24;15.10;99.90
14749;DHT22;7466;53.574;9.976;2023-06-14T00:32:56;15.10;99.90
14749;DHT22;7466;53.574;9.976;2023-06-14T00:35:23;15.10;99.90
14749;DHT22;7466;53.574;9.976;2023-06-14T00:37:50;15.00;99.90
14749;DHT22;7466;53.574;9.976;2023-06-14T00:40:17;15.00;99.90
14749;DHT22;7466;53.574;9.976;2023-06-14T00:42:44;15.00;99.90
14749;DHT22;7466;53.574;9.976;2023-06-14T00:45:11;14.90;99.90
14749;DHT22;7466;53.574;9.976;2023-06-14T00:47:41;15.00;99.90
14749;DHT22;7466;53.574;9.976;2023-06-14T00:50:09;15.00;99.90
14749;DHT22;7466;53.574;9.976;2023-06-14T00:52:37;14.90;99.90
14749;DHT22;7466;53.574;9.976;2023-06-14T00:55:04;14.90;99.90
14749;DHT22;7466;53.574;9.976;2023-06-14T00:57:32;14.90;99.90
14749;DHT22;7466;53.574;9.976;2023-06-14T01:00:03;14.90;99.90
14749;DHT22;7466;53.574;9.976;2023-06-14T01:02:34;14.90;99.90
14749;DHT22;7466;53.574;9.976;2023-06-14T01:05:05;14.90;99.90
14749;DHT22;7466;53.574;9.976;2023-06-14T01:07:43;14.80;99.90
14749;DHT22;7466;53.574;9.976;2023-06-14T01:10:31;14.80;99.90
14749;DHT22;7466;53.574;9.976;2023-06-14T01:13:07;14.80;99.90
14749;DHT22;7466;53.574;9.976;2023-06-14T01:15:34;14.80;99.90
14749;DHT22;7466;53.574;9.976;2023-06-14T01:18:02;14.70;99.90
14749;DHT22;7466;53.574;9.976;2023-06-14T01:20:32;14.70;99.90
14749;DHT22;7466;53.574;9.976;2023-06-14T01:23:04;14.70;99.90
14749;DHT22;7466;53.574;9.976;2023-06-14T01:25:31;14.70;99.90
14749;DHT22;7466;53.574;9.976;2023-06-14T01:28:00;14.60;99.90
14749;DHT22;7466;53.574;9.976;2023-06-14T01:30:29;14.70;99.90
14749;DHT22;7466;53.574;9.976;2023-06-14T01:32:58;14.70;99.90
14749;DHT22;7466;53.574;9.976;2023-06-14T01:35:25;14.60;99.90
14749;DHT22;7466;53.574;9.976;2023-06-14T01:37:53;14.50;99.90
14749;DHT22;7466;53.574;9.976;2023-06-14T01:40:22;14.60;99.90
14749;DHT22;7466;53.574;9.976;2023-06-14T01:42:50;14.50;99.90
14749;DHT22;7466;53.574;9.976;2023-06-14T01:45:18;14.50;99.90
14749;DHT22;7466;53.574;9.976;2023-06-14T01:47:47;14.50;99.90
14749;DHT22;7466;53.574;9.976;2023-06-14T01:50:14;14.50;99.90
14749;DHT22;7466;53.574;9.976;2023-06-14T01:52:41;14.40;99.90
14749;DHT22;7466;53.574;9.976;2023-06-14T01:55:08;14.40;99.90
14749;DHT22;7466;53.574;9.976;2023-06-14T01:57:36;14.30;99.90
14749;DHT22;7466;53.574;9.976;2023-06-14T02:00:04;14.30;99.90
14749;DHT22;7466;53.574;9.976;2023-06-14T02:02:31;14.30;99.90
14749;DHT22;7466;53.574;9.976;2023-06-14T02:04:58;14.20;99.90
14749;DHT22;7466;53.574;9.976;2023-06-14T02:07:25;14.10;99.90
14749;DHT22;7466;53.574;9.976;2023-06-14T02:09:51;14.10;99.90
14749;DHT22;7466;53.574;9.976;2023-06-14T02:12:18;14.20;99.90
14749;DHT22;7466;53.574;9.976;2023-06-14T02:14:46;14.20;99.90
14749;DHT22;7466;53.574;9.976;2023-06-14T02:17:14;14.20;99.90
14749;DHT22;7466;53.574;9.976;2023-06-14T02:19:41;14.10;99.90
14749;DHT22;7466;53.574;9.976;2023-06-14T02:22:08;14.20;99.90
14749;DHT22;7466;53.574;9.976;2023-06-14T02:24:35;14.20;99.90
14749;DHT22;7466;53.574;9.976;2023-06-14T02:27:04;14.20;99.90
14749;DHT22;7466;53.574;9.976;2023-06-14T02:29:32;14.10;99.90
14749;DHT22;7466;53.574;9.976;2023-06-14T02:32:00;14.10;99.90
14749;DHT22;7466;53.574;9.976;2023-06-14T02:34:27;14.00;99.90
14749;DHT22;7466;53.574;9.976;2023-06-14T02:36:54;14.00;99.90
14749;DHT22;7466;53.574;9.976;2023-06-14T02:39:22;14.00;99.90
14749;DHT22;7466;53.574;9.976;2023-06-14T02:41:49;14.00;99.90
14749;DHT22;7466;53.574;9.976;2023-06-14T02:44:17;14.00;99.90
14749;DHT22;7466;53.574;9.976;2023-06-14T02:46:44;14.10;99.90
14749;DHT22;7466;53.574;9.976;2023-06-14T02:49:13;14.00;99.90
14749;DHT22;7466;53.574;9.976;2023-06-14T02:51:40;14.00;99.90
14749;DHT22;7466;53.574;9.976;2023-06-14T02:54:07;13.90;99.90
14749;DHT22;7466;53.574;9.976;2023-06-14T02:56:34;13.90;99.90
14749;DHT22;7466;53.574;9.976;2023-06-14T02:59:01;13.90;99.90
14749;DHT22;7466;53.574;9.976;2023-06-14T03:01:28;13.90;99.90
14749;DHT22;7466;53.574;9.976;2023-06-14T03:04:00;13.90;99.90
14749;DHT22;7466;53.574;9.976;2023-06-14T03:06:28;13.90;99.90
14749;DHT22;7466;53.574;9.976;2023-06-14T03:08:56;13.90;99.90
14749;DHT22;7466;53.574;9.976;2023-06-14T03:11:24;13.80;99.90
14749;DHT22;7466;53.574;9.976;2023-06-14T03:13:51;13.90;99.90
14749;DHT22;7466;53.574;9.976;2023-06-14T03:16:18;13.80;99.90
14749;DHT22;7466;53.574;9.976;2023-06-14T03:18:48;13.90;99.90
14749;DHT22;7466;53.574;9.976;2023-06-14T03:21:15;13.90;99.90
14749;DHT22;7466;53.574;9.976;2023-06-14T03:23:43;13.90;99.90
14749;DHT22;7466;53.574;9.976;2023-06-14T03:26:10;13.80;99.90
14749;DHT22;7466;53.574;9.976;2023-06-14T03:28:38;13.80;99.90
14749;DHT22;7466;53.574;9.976;2023-06-14T03:31:05;13.90;99.90
14749;DHT22;7466;53.574;9.976;2023-06-14T03:33:32;13.90;99.90
14749;DHT22;7466;53.574;9.976;2023-06-14T03:35:59;13.90;99.90
14749;DHT22;7466;53.574;9.976;2023-06-14T03:38:25;13.90;99.90
14749;DHT22;7466;53.574;9.976;2023-06-14T03:40:54;13.90;99.90
14749;DHT22;7466;53.574;9.976;2023-06-14T03:43:20;13.90;99.90
14749;DHT22;7466;53.574;9.976;2023-06-14T03:45:47;13.90;99.90
14749;DHT22;7466;53.574;9.976;2023-06-14T03:48:14;14.00;99.90
14749;DHT22;7466;53.574;9.976;2023-06-14T03:50:41;13.90;99.90
14749;DHT22;7466;53.574;9.976;2023-06-14T03:53:08;14.00;99.90
14749;DHT22;7466;53.574;9.976;2023-06-14T03:55:36;14.00;99.90
14749;DHT22;7466;53.574;9.976;2023-06-14T03:58:04;14.10;99.90
14749;DHT22;7466;53.574;9.976;2023-06-14T04:00:32;14.00;99.90
14749;DHT22;7466;53.574;9.976;2023-06-14T04:02:58;14.10;99.90
14749;DHT22;7466;53.574;9.976;2023-06-14T04:05:25;14.10;99.90
14749;DHT22;7466;53.574;9.976;2023-06-14T04:07:52;14.20;99.90
14749;DHT22;7466;53.574;9.976;2023-06-14T04:10:28;14.20;99.90
14749;DHT22;7466;53.574;9.976;2023-06-14T04:12:54;14.30;99.90
14749;DHT22;7466;53.574;9.976;2023-06-14T04:15:22;14.30;99.90
14749;DHT22;7466;53.574;9.976;2023-06-14T04:17:49;14.30;99.90
14749;DHT22;7466;53.574;9.976;2023-06-14T04:20:16;14.40;99.90
14749;DHT22;7466;53.574;9.976;2023-06-14T04:22:43;14.40;99.90
14749;DHT22;7466;53.574;9.976;2023-06-14T04:25:12;14.40;99.90
14749;DHT22;7466;53.574;9.976;2023-06-14T04:27:40;14.50;99.90
14749;DHT22;7466;53.574;9.976;2023-06-14T04:30:08;14.50;99.90
14749;DHT22;7466;53.574;9.976;2023-06-14T04:32:36;14.60;99.90
14749;DHT22;7466;53.574;9.976;2023-06-14T04:35:05;14.60;99.90
14749;DHT22;7466;53.574;9.976;2023-06-14T04:37:32;14.70;99.90
14749;DHT22;7466;53.574;9.976;2023-06-14T04:40:00;14.70;99.90
14749;DHT22;7466;53.574;9.976;2023-06-14T04:42:27;14.80;99.90
14749;DHT22;7466;53.574;9.976;2023-06-14T04:44:56;14.80;99.90
14749;DHT22;7466;53.574;9.976;2023-06-14T04:47:23;14.90;99.90
14749;DHT22;7466;53.574;9.976;2023-06-14T04:49:56;15.00;99.90
14749;DHT22;7466;53.574;9.976;2023-06-14T04:52:23;15.10;99.90
14749;DHT22;7466;53.574;9.976;2023-06-14T04:54:52;15.10;99.90
14749;DHT22;7466;53.574;9.976;2023-06-14T04:57:19;15.10;99.90
14749;DHT22;7466;53.574;9.976;2023-06-14T04:59:48;15.10;99.90
14749;DHT22;7466;53.574;9.976;2023-06-14T05:02:20;15.20;99.90
14749;DHT22;7466;53.574;9.976;2023-06-14T05:04:47;15.30;99.90
14749;DHT22;7466;53.574;9.976;2023-06-14T05:07:15;15.30;99.90
14749;DHT22;7466;53.574;9.976;2023-06-14T05:09:42;15.40;99.90
14749;DHT22;7466;53.574;9.976;2023-06-14T05:12:09;15.50;99.90
14749;DHT22;7466;53.574;9.976;2023-06-14T05:14:37;15.60;99.90
14749;DHT22;7466;53.574;9.976;2023-06-14T05:17:05;15.70;99.90
14749;DHT22;7466;53.574;9.976;2023-06-14T05:19:33;15.80;99.90
14749;DHT22;7466;53.574;9.976;2023-06-14T05:22:00;15.90;99.90
14749;DHT22;7466;53.574;9.976;2023-06-14T05:24:29;16.00;99.90
14749;DHT22;7466;53.574;9.976;2023-06-14T05:26:57;16.00;99.90
14749;DHT22;7466;53.574;9.976;2023-06-14T05:29:24;16.10;99.90
14749;DHT22;7466;53.574;9.976;2023-06-14T05:31:52;16.20;99.90
14749;DHT22;7466;53.574;9.976;2023-06-14T05:34:33;16.30;99.90
14749;DHT22;7466;53.574;9.976;2023-06-14T05:37:00;16.40;99.90
14749;DHT22;7466;53.574;9.976;2023-06-14T05:39:31;16.40;99.90
14749;DHT22;7466;53.574;9.976;2023-06-14T05:41:57;16.50;99.90
14749;DHT22;7466;53.574;9.976;2023-06-14T05:44:24;16.60;99.90
14749;DHT22;7466;53.574;9.976;2023-06-14T05:46:51;16.70;99.90
14749;DHT22;7466;53.574;9.976;2023-06-14T05:49:18;16.80;99.90
14749;DHT22;7466;53.574;9.976;2023-06-14T05:51:44;16.90;99.90
14749;DHT22;7466;53.574;9.976;2023-06-14T05:54:12;17.00;99.90
14749;DHT22;7466;53.574;9.976;2023-06-14T05:56:42;17.10;99.90
14749;DHT22;7466;53.574;9.976;2023-06-14T05:59:09;17.10;99.90
14749;DHT22;7466;53.574;9.976;2023-06-14T06:01:35;17.30;99.90
14749;DHT22;7466;53.574;9.976;2023-06-14T06:04:03;17.50;99.90
14749;DHT22;7466;53.574;9.976;2023-06-14T06:06:30;17.50;99.90
14749;DHT22;7466;53.574;9.976;2023-06-14T06:08:57;17.60;99.90
14749;DHT22;7466;53.574;9.976;2023-06-14T06:11:24;17.70;99.90
14749;DHT22;7466;53.574;9.976;2023-06-14T06:13:53;17.70;99.90
14749;DHT22;7466;53.574;9.976;2023-06-14T06:16:20;17.90;99.90
14749;DHT22;7466;53.574;9.976;2023-06-14T06:18:47;18.00;99.90
14749;DHT22;7466;53.574;9.976;2023-06-14T06:21:13;18.10;99.90
14749;DHT22;7466;53.574;9.976;2023-06-14T06:23:42;18.20;99.90
14749;DHT22;7466;53.574;9.976;2023-06-14T06:26:11;18.20;99.90
14749;DHT22;7466;53.574;9.976;2023-06-14T06:28:38;18.30;99.90
14749;DHT22;7466;53.574;9.976;2023-06-14T06:31:06;18.20;99.90
14749;DHT22;7466;53.574;9.976;2023-06-14T06:33:33;18.30;99.90
14749;DHT22;7466;53.574;9.976;2023-06-14T06:36:00;18.30;99.90
14749;DHT22;7466;53.574;9.976;2023-06-14T06:38:27;18.40;99.90
14749;DHT22;7466;53.574;9.976;2023-06-14T06:40:54;18.40;99.90
14749;DHT22;7466;53.574;9.976;2023-06-14T06:43:22;18.40;99.90
14749;DHT22;7466;53.574;9.976;2023-06-14T06:45:48;18.60;99.90
14749;DHT22;7466;53.574;9.976;2023-06-14T06:48:17;18.60;99.90
14749;DHT22;7466;53.574;9.976;2023-06-14T06:50:44;18.70;99.90
14749;DHT22;7466;53.574;9.976;2023-06-14T06:53:11;18.80;99.90
14749;DHT22;7466;53.574;9.976;2023-06-14T06:55:37;18.90;99.90
14749;DHT22;7466;53.574;9.976;2023-06-14T06:58:04;18.90;99.90
14749;DHT22;7466;53.574;9.976;2023-06-14T07:00:31;19.20;99.90
14749;DHT22;7466;53.574;9.976;2023-06-14T07:03:01;19.20;99.90
14749;DHT22;7466;53.574;9.976;2023-06-14T07:05:30;19.40;99.90
14749;DHT22;7466;53.574;9.976;2023-06-14T07:07:58;19.40;99.90
14749;DHT22;7466;53.574;9.976;2023-06-14T07:10:25;19.70;99.90
14749;DHT22;7466;53.574;9.976;2023-06-14T07:12:52;19.60;99.90
14749;DHT22;7466;53.574;9.976;2023-06-14T07:15:19;19.70;99.90
14749;DHT22;7466;53.574;9.976;2023-06-14T07:17:45;19.60;99.90
14749;DHT22;7466;53.574;9.976;2023-06-14T07:20:13;19.90;99.90
14749;DHT22;7466;53.574;9.976;2023-06-14T07:22:42;20.00;99.90
14749;DHT22;7466;53.574;9.976;2023-06-14T07:25:10;20.10;99.90
14749;DHT22;7466;53.574;9.976;2023-06-14T07:27:39;20.20;99.90
14749;DHT22;7466;53.574;9.976;2023-06-14T07:30:10;20.10;99.90
14749;DHT22;7466;53.574;9.976;2023-06-14T07:32:38;20.10;99.90
14749;DHT22;7466;53.574;9.976;2023-06-14T07:35:07;20.10;99.90
14749;DHT22;7466;53.574;9.976;2023-06-14T07:37:33;20.40;99.90
14749;DHT22;7466;53.574;9.976;2023-06-14T07:40:02;20.60;99.90
14749;DHT22;7466;53.574;9.976;2023-06-14T07:42:33;20.60;99.90
14749;DHT22;7466;53.574;9.976;2023-06-14T07:45:01;20.50;99.90
14749;DHT22;7466;53.574;9.976;2023-06-14T07:47:27;20.70;99.90
14749;DHT22;7466;53.574;9.976;2023-06-14T07:49:54;20.70;99.90
14749;DHT22;7466;53.574;9.976;2023-06-14T07:52:22;20.70;99.90
14749;DHT22;7466;53.574;9.976;2023-06-14T07:54:49;20.90;99.90
14749;DHT22;7466;53.574;9.976;2023-06-14T07:57:17;20.80;99.90
14749;DHT22;7466;53.574;9.976;2023-06-14T07:59:45;20.90;99.90
14749;DHT22;7466;53.574;9.976;2023-06-14T08:02:12;20.80;99.90
14749;DHT22;7466;53.574;9.976;2023-06-14T08:04:39;20.90;99.90
14749;DHT22;7466;53.574;9.976;2023-06-14T08:07:08;20.90;99.90
14749;DHT22;7466;53.574;9.976;2023-06-14T08:09:37;20.80;99.90
14749;DHT22;7466;53.574;9.976;2023-06-14T08:12:04;20.90;99.90
14749;DHT22;7466;53.574;9.976;2023-06-14T08:14:34;21.00;99.90
14749;DHT22;7466;53.574;9.976;2023-06-14T08:17:01;21.10;99.90
14749;DHT22;7466;53.574;9.976;2023-06-14T08:19:28;21.10;99.90
14749;DHT22;7466;53.574;9.976;2023-06-14T08:21:55;21.30;99.90
14749;DHT22;7466;53.574;9.976;2023-06-14T08:24:25;21.40;99.90
14749;DHT22;7466;53.574;9.976;2023-06-14T08:26:53;21.60;99.90
14749;DHT22;7466;53.574;9.976;2023-06-14T08:29:20;21.80;99.90
14749;DHT22;7466;53.574;9.976;2023-06-14T08:31:48;21.70;99.90
14749;DHT22;7466;53.574;9.976;2023-06-14T08:34:15;21.90;99.90
14749;DHT22;7466;53.574;9.976;2023-06-14T08:36:41;21.90;99.90
14749;DHT22;7466;53.574;9.976;2023-06-14T08:39:08;21.90;99.90
14749;DHT22;7466;53.574;9.976;2023-06-14T08:41:35;21.90;99.90
14749;DHT22;7466;53.574;9.976;2023-06-14T08:44:03;22.10;99.90
14749;DHT22;7466;53.574;9.976;2023-06-14T08:46:32;22.30;99.90
14749;DHT22;7466;53.574;9.976;2023-06-14T08:49:02;22.40;99.90
14749;DHT22;7466;53.574;9.976;2023-06-14T08:51:31;22.50;99.90
14749;DHT22;7466;53.574;9.976;2023-06-14T08:54:00;22.60;99.90
14749;DHT22;7466;53.574;9.976;2023-06-14T08:56:27;22.60;99.90
14749;DHT22;7466;53.574;9.976;2023-06-14T08:58:55;22.80;99.90
14749;DHT22;7466;53.574;9.976;2023-06-14T09:01:22;22.80;99.90
14749;DHT22;7466;53.574;9.976;2023-06-14T09:03:51;22.90;99.90
14749;DHT22;7466;53.574;9.976;2023-06-14T09:06:21;23.10;99.90
14749;DHT22;7466;53.574;9.976;2023-06-14T09:08:48;23.10;99.90
14749;DHT22;7466;53.574;9.976;2023-06-14T09:11:17;23.40;99.90
14749;DHT22;7466;53.574;9.976;2023-06-14T09:13:45;23.20;99.90
14749;DHT22;7466;53.574;9.976;2023-06-14T09:16:11;23.20;98.80
14749;DHT22;7466;53.574;9.976;2023-06-14T09:18:39;22.80;99.60
14749;DHT22;7466;53.574;9.976;2023-06-14T09:21:07;22.60;99.90
14749;DHT22;7466;53.574;9.976;2023-06-14T09:23:38;22.90;99.80
14749;DHT22;7466;53.574;9.976;2023-06-14T09:26:08;23.00;99.90
14749;DHT22;7466;53.574;9.976;2023-06-14T09:28:35;23.10;99.30
14749;DHT22;7466;53.574;9.976;2023-06-14T09:31:02;23.20;98.30
14749;DHT22;7466;53.574;9.976;2023-06-14T09:33:30;22.90;98.40
14749;DHT22;7466;53.574;9.976;2023-06-14T09:35:57;22.80;97.90
14749;DHT22;7466;53.574;9.976;2023-06-14T09:38:25;22.70;98.20
14749;DHT22;7466;53.574;9.976;2023-06-14T09:40:56;22.60;98.60
14749;DHT22;7466;53.574;9.976;2023-06-14T09:43:23;22.90;98.80
14749;DHT22;7466;53.574;9.976;2023-06-14T09:45:54;23.10;98.20
14749;DHT22;7466;53.574;9.976;2023-06-14T09:48:21;23.50;95.40
14749;DHT22;7466;53.574;9.976;2023-06-14T09:50:50;24.00;95.60
14749;DHT22;7466;53.574;9.976;2023-06-14T09:53:21;24.20;93.00
14749;DHT22;7466;53.574;9.976;2023-06-14T09:55:49;24.30;89.90
14749;DHT22;7466;53.574;9.976;2023-06-14T09:58:20;24.10;91.40
14749;DHT22;7466;53.574;9.976;2023-06-14T10:00:51;24.00;91.60
14749;DHT22;7466;53.574;9.976;2023-06-14T10:03:24;24.40;91.70
14749;DHT22;7466;53.574;9.976;2023-06-14T10:05:51;24.40;92.10
14749;DHT22;7466;53.574;9.976;2023-06-14T10:08:23;24.40;89.80
14749;DHT22;7466;53.574;9.976;2023-06-14T10:10:51;24.30;89.60
14749;DHT22;7466;53.574;9.976;2023-06-14T10:13:20;24.70;90.90
14749;DHT22;7466;53.574;9.976;2023-06-14T10:15:53;24.40;89.70
14749;DHT22;7466;53.574;9.976;2023-06-14T10:18:28;24.70;89.90
14749;DHT22;7466;53.574;9.976;2023-06-14T10:21:05;24.30;91.70
14749;DHT22;7466;53.574;9.976;2023-06-14T10:23:37;24.10;90.40
14749;DHT22;7466;53.574;9.976;2023-06-14T10:26:07;23.50;91.60
14749;DHT22;7466;53.574;9.976;2023-06-14T10:28:37;23.20;93.90
14749;DHT22;7466;53.574;9.976;2023-06-14T10:31:07;23.80;91.50
14749;DHT22;7466;53.574;9.976;2023-06-14T10:33:35;24.00;91.10
14749;DHT22;7466;53.574;9.976;2023-06-14T10:36:10;24.20;90.30
14749;DHT22;7466;53.574;9.976;2023-06-14T10:38:37;24.50;90.20
14749;DHT22;7466;53.574;9.976;2023-06-14T10:41:04;24.60;88.60
14749;DHT22;7466;53.574;9.976;2023-06-14T10:43:32;24.50;86.50
14749;DHT22;7466;53.574;9.976;2023-06-14T10:46:17;24.80;86.50
14749;DHT22;7466;53.574;9.976;2023-06-14T10:48:47;25.10;81.50
14749;DHT22;7466;53.574;9.976;2023-06-14T10:51:18;25.30;80.30
14749;DHT22;7466;53.574;9.976;2023-06-14T10:53:46;25.50;81.90
14749;DHT22;7466;53.574;9.976;2023-06-14T10:56:27;25.30;82.50
14749;DHT22;7466;53.574;9.976;2023-06-14T10:58:54;25.30;80.00
14749;DHT22;7466;53.574;9.976;2023-06-14T11:01:31;25.80;78.20
14749;DHT22;7466;53.574;9.976;2023-06-14T11:04:07;25.90;76.90
14749;DHT22;7466;53.574;9.976;2023-06-14T11:06:45;25.80;77.40
14749;DHT22;7466;53.574;9.976;2023-06-14T11:09:41;24.80;79.70
14749;DHT22;7466;53.574;9.976;2023-06-14T11:12:13;24.90;76.60
14749;DHT22;7466;53.574;9.976;2023-06-14T11:14:41;24.80;81.20
14749;DHT22;7466;53.574;9.976;2023-06-14T11:17:11;24.50;81.00
14749;DHT22;7466;53.574;9.976;2023-06-14T11:19:38;24.30;83.70
14749;DHT22;7466;53.574;9.976;2023-06-14T11:22:05;24.10;84.70
14749;DHT22;7466;53.574;9.976;2023-06-14T11:24:32;24.20;84.80
14749;DHT22;7466;53.574;9.976;2023-06-14T11:26:59;24.40;80.90
14749;DHT22;7466;53.574;9.976;2023-06-14T11:29:26;25.00;79.10
14749;DHT22;7466;53.574;9.976;2023-06-14T11:31:55;25.50;77.40
14749;DHT22;7466;53.574;9.976;2023-06-14T11:34:24;24.70;77.10
14749;DHT22;7466;53.574;9.976;2023-06-14T11:36:51;24.40;79.10
14749;DHT22;7466;53.574;9.976;2023-06-14T11:39:24;24.40;80.30
14749;DHT22;7466;53.574;9.976;2023-06-14T11:41:51;24.00;81.10
14749;DHT22;7466;53.574;9.976;2023-06-14T11:44:18;23.90;81.00
14749;DHT22;7466;53.574;9.976;2023-06-14T11:46:45;24.10;83.60
14749;DHT22;7466;53.574;9.976;2023-06-14T11:49:12;25.00;80.20
14749;DHT22;7466;53.574;9.976;2023-06-14T11:51:42;25.40;79.90
14749;DHT22;7466;53.574;9.976;2023-06-14T11:54:10;25.60;78.00
14749;DHT22;7466;53.574;9.976;2023-06-14T11:56:37;25.80;76.30
14749;DHT22;7466;53.574;9.976;2023-06-14T11:59:04;25.60;76.80
14749;DHT22;7466;53.574;9.976;2023-06-14T12:01:31;25.30;77.00
14749;DHT22;7466;53.574;9.976;2023-06-14T12:03:59;25.20;76.50
14749;DHT22;7466;53.574;9.976;2023-06-14T12:06:27;25.70;75.00
14749;DHT22;7466;53.574;9.976;2023-06-14T12:08:59;26.20;76.50
14749;DHT22;7466;53.574;9.976;2023-06-14T12:11:32;26.70;71.00
14749;DHT22;7466;53.574;9.976;2023-06-14T12:14:00;27.20;72.20
14749;DHT22;7466;53.574;9.976;2023-06-14T12:16:38;26.10;71.00
14749;DHT22;7466;53.574;9.976;2023-06-14T12:19:11;26.10;72.80
14749;DHT22;7466;53.574;9.976;2023-06-14T12:21:38;25.80;70.30
14749;DHT22;7466;53.574;9.976;2023-06-14T12:24:08;25.50;73.60
14749;DHT22;7466;53.574;9.976;2023-06-14T12:26:38;25.70;72.20
14749;DHT22;7466;53.574;9.976;2023-06-14T12:29:06;25.60;71.00
14749;DHT22;7466;53.574;9.976;2023-06-14T12:31:34;25.20;73.10
14749;DHT22;7466;53.574;9.976;2023-06-14T12:34:01;24.80;74.60
14749;DHT22;7466;53.574;9.976;2023-06-14T12:36:27;25.30;74.40
14749;DHT22;7466;53.574;9.976;2023-06-14T12:38:55;25.90;73.80
14749;DHT22;7466;53.574;9.976;2023-06-14T12:41:23;26.30;71.20
14749;DHT22;7466;53.574;9.976;2023-06-14T12:43:52;26.80;69.20
14749;DHT22;7466;53.574;9.976;2023-06-14T12:46:18;27.40;66.80
14749;DHT22;7466;53.574;9.976;2023-06-14T12:48:46;27.50;63.90
14749;DHT22;7466;53.574;9.976;2023-06-14T12:51:13;28.20;62.40
14749;DHT22;7466;53.574;9.976;2023-06-14T12:53:39;28.50;61.50
14749;DHT22;7466;53.574;9.976;2023-06-14T12:56:06;28.40;61.20
14749;DHT22;7466;53.574;9.976;2023-06-14T12:58:34;28.10;60.50
14749;DHT22;7466;53.574;9.976;2023-06-14T13:01:01;27.40;62.30
14749;DHT22;7466;53.574;9.976;2023-06-14T13:03:28;26.70;61.80
14749;DHT22;7466;53.574;9.976;2023-06-14T13:05:55;26.90;63.20
14749;DHT22;7466;53.574;9.976;2023-06-14T13:08:21;27.30;62.30
14749;DHT22;7466;53.574;9.976;2023-06-14T13:10:48;27.30;60.60
14749;DHT22;7466;53.574;9.976;2023-06-14T13:13:15;27.40;61.00
14749;DHT22;7466;53.574;9.976;2023-06-14T13:15:43;27.10;62.90
14749;DHT22;7466;53.574;9.976;2023-06-14T13:18:11;27.50;62.80
14749;DHT22;7466;53.574;9.976;2023-06-14T13:20:38;28.20;59.90
14749;DHT22;7466;53.574;9.976;2023-06-14T13:23:05;28.20;58.50
14749;DHT22;7466;53.574;9.976;2023-06-14T13:25:33;29.20;57.00
14749;DHT22;7466;53.574;9.976;2023-06-14T13:27:59;30.00;54.90
14749;DHT22;7466;53.574;9.976;2023-06-14T13:30:26;30.90;53.50
14749;DHT22;7466;53.574;9.976;2023-06-14T13:32:54;31.40;51.50
14749;DHT22;7466;53.574;9.976;2023-06-14T13:35:21;30.50;50.00
14749;DHT22;7466;53.574;9.976;2023-06-14T13:37:48;32.50;50.80
14749;DHT22;7466;53.574;9.976;2023-06-14T13:40:15;31.80;50.40
14749;DHT22;7466;53.574;9.976;2023-06-14T13:42:42;32.20;49.60
14749;DHT22;7466;53.574;9.976;2023-06-14T13:45:11;32.00;50.20
14749;DHT22;7466;53.574;9.976;2023-06-14T13:47:38;31.30;50.10
14749;DHT22;7466;53.574;9.976;2023-06-14T13:50:07;29.80;51.90
14749;DHT22;7466;53.574;9.976;2023-06-14T13:52:34;29.10;53.10
14749;DHT22;7466;53.574;9.976;2023-06-14T13:55:02;30.70;53.20
14749;DHT22;7466;53.574;9.976;2023-06-14T13:57:29;32.90;49.50
14749;DHT22;7466;53.574;9.976;2023-06-14T14:00:00;35.10;45.60
14749;DHT22;7466;53.574;9.976;2023-06-14T14:02:27;34.30;45.70
14749;DHT22;7466;53.574;9.976;2023-06-14T14:04:54;34.30;44.10
14749;DHT22;7466;53.574;9.976;2023-06-14T14:07:22;35.00;44.00
14749;DHT22;7466;53.574;9.976;2023-06-14T14:09:57;34.20;44.30
14749;DHT22;7466;53.574;9.976;2023-06-14T14:12:24;31.80;46.40
14749;DHT22;7466;53.574;9.976;2023-06-14T14:14:50;29.60;50.40
14749;DHT22;7466;53.574;9.976;2023-06-14T14:17:17;30.10;49.80
14749;DHT22;7466;53.574;9.976;2023-06-14T14:19:44;29.30;50.00
14749;DHT22;7466;53.574;9.976;2023-06-14T14:22:11;30.30;49.20
14749;DHT22;7466;53.574;9.976;2023-06-14T14:24:39;30.30;48.10
14749;DHT22;7466;53.574;9.976;2023-06-14T14:27:06;32.10;46.40
14749;DHT22;7466;53.574;9.976;2023-06-14T14:29:33;32.50;46.00
14749;DHT22;7466;53.574;9.976;2023-06-14T14:32:01;33.00;45.40
14749;DHT22;7466;53.574;9.976;2023-06-14T14:34:28;35.90;43.30
14749;DHT22;7466;53.574;9.976;2023-06-14T14:36:54;35.70;41.30
14749;DHT22;7466;53.574;9.976;2023-06-14T14:39:21;34.20;42.80
14749;DHT22;7466;53.574;9.976;2023-06-14T14:41:50;33.80;43.90
14749;DHT22;7466;53.574;9.976;2023-06-14T14:44:17;34.30;42.20
14749;DHT22;7466;53.574;9.976;2023-06-14T14:46:44;33.30;43.00
14749;DHT22;7466;53.574;9.976;2023-06-14T14:49:13;33.10;44.50
14749;DHT22;7466;53.574;9.976;2023-06-14T14:51:40;33.60;43.10
14749;DHT22;7466;53.574;9.976;2023-06-14T14:54:10;34.20;43.50
14749;DHT22;7466;53.574;9.976;2023-06-14T14:56:37;36.00;40.40
14749;DHT22;7466;53.574;9.976;2023-06-14T14:59:06;36.20;41.40
14749;DHT22;7466;53.574;9.976;2023-06-14T15:01:32;37.50;39.40
14749;DHT22;7466;53.574;9.976;2023-06-14T15:04:00;36.80;38.70
14749;DHT22;7466;53.574;9.976;2023-06-14T15:06:26;35.60;38.80
14749;DHT22;7466;53.574;9.976;2023-06-14T15:08:53;37.00;39.20
14749;DHT22;7466;53.574;9.976;2023-06-14T15:11:20;37.70;37.50
14749;DHT22;7466;53.574;9.976;2023-06-14T15:13:47;36.80;37.20
14749;DHT22;7466;53.574;9.976;2023-06-14T15:16:18;36.20;38.50
14749;DHT22;7466;53.574;9.976;2023-06-14T15:18:45;36.40;38.50
14749;DHT22;7466;53.574;9.976;2023-06-14T15:21:12;34.50;39.70
14749;DHT22;7466;53.574;9.976;2023-06-14T15:23:40;33.40;41.50
14749;DHT22;7466;53.574;9.976;2023-06-14T15:26:07;29.80;45.60
14749;DHT22;7466;53.574;9.976;2023-06-14T15:28:34;27.70;49.20
14749;DHT22;7466;53.574;9.976;2023-06-14T15:31:01;26.90;51.10
14749;DHT22;7466;53.574;9.976;2023-06-14T15:33:29;28.30;51.00
14749;DHT22;7466;53.574;9.976;2023-06-14T15:35:57;28.60;48.80
14749;DHT22;7466;53.574;9.976;2023-06-14T15:38:23;28.80;48.30
14749;DHT22;7466;53.574;9.976;2023-06-14T15:40:50;29.80;48.20
14749;DHT22;7466;53.574;9.976;2023-06-14T15:43:17;30.10;46.00
14749;DHT22;7466;53.574;9.976;2023-06-14T15:45:44;32.20;44.90
14749;DHT22;7466;53.574;9.976;2023-06-14T15:48:10;32.80;42.50
14749;DHT22;7466;53.574;9.976;2023-06-14T15:50:39;32.60;42.10